Skip Navigation LinksHome page > Weather > Current weather Skip Navigation Links

Current Weather

Indianapolis Intl, Indianapolis

For information only: do not use for flight planning or navigation.
Latest weather
Observation time Monday, June 21, 2021 8:54 PM EDT
Local time Monday, June 21, 2021 9:39 PM EDT
Flight conditions Visual Meteorological Conditions
Winds
Wind direction West (280°)
Wind speed 7 mph
Visibility 10 mi.
Sky condition
Ceiling 16,000 ft. broken clouds
Cloud layer few clouds 3,000 ft.
Cloud layer broken clouds 16,000 ft.
Cloud layer broken clouds 25,000 ft.
Temperature 67°F
Dewpoint 56°F
Altimeter 29.83 in.Hg
Derived measurements
Relative humidity 68%
Density altitude 1630 ft.
Sea-level pressure 29.81 in.Hg
Remarks
Automated weather observing station with precipitation discriminator.
METAR KIND 220054Z 28006KT 10SM FEW030 BKN160 BKN250 19/13 A2983 RMK AO2 SLP094 T01940133

Settings

Location code

InnerDrive.Weather 4.0.6770.0 Release CLR 4.0.30319.42000
Copyright ©2018 Inner Drive Technology. All rights reserved. Portions Copyright ©1986-2018 David Braverman.

Find weather

Site navigation


Skip Navigation Links

Place info

Page info

PayPal - The safer, easier way to pay online!

Return home.

Copyright ©2021 Inner Drive Technology. Purveyors of fine, hand-crafted computer software. Page printed 2021-06-22T01:40:00 UTC.